Tiempo atmosférico en la estación meteorológica de Puebla de Sanabria, Zamora (910 m.)



Fecha
DESCASC
Temp. máxima en grados centígrados (hora)
DESCASC
Temp. mínima en grados centígrados (hora)
DESCASC
Temp. media en grados centígrados
DESCASC
Racha de viento máxima en m/sg (hora)
DESCASC
Velocidad máxima media en intervalos de 10 minutos(hora)
DESCASC
Precipitaciones diarias en mm
DESCASC
Precipitaciones de 00:00 a 06:00 en mm
DESCASC
Precipitaciones de 06:00 a 12:00 en mm
DESCASC
Precipitaciones de 12:00 a 18:00 en mm
DESCASC
Precipitaciones de 18:00 a 24:00 en mm
DESCASC

Gráficas

Temp. máximas Temp. mínimas Temp. medias Precipitaciones Rachas de viento máximas Velocidades máximas media en intervalos de 10 minutos

Datos horarios

Fecha y hora oficial Temperatura (ºC) Velocidad del viento (km/h) Dirección del viento Racha (km/h) Dirección de racha Precipitación (mm) Presión (hPa) Tendencia (hPa) Humedad (%)
2019-09-21 23:00:00 12.2 2 Sur 18 Sur 0.4 -- -- 92
2019-09-21 22:00:00 14.4 9 Sur 28 Sudeste 1.8 -- -- 98
2019-09-21 21:00:00 14.5 3 Sudeste 13 Sudeste 2 -- -- 99
2019-09-21 20:00:00 14.3 4 Sur 13 Sudeste 2.4 -- -- 98
2019-09-21 19:00:00 14.5 4 Sudeste 26 Sur 3.2 -- -- 97
2019-09-21 18:00:00 15.5 6 Sur 17 Sudeste 0.8 -- -- 96
2019-09-21 17:00:00 15.3 5 Sur 19 Sur 1.6 -- -- 97
2019-09-21 16:00:00 15 4 Sudeste 16 Sudeste 1 -- -- 97
2019-09-21 15:00:00 15 6 Sudeste 18 Sudeste 0.6 -- -- 97
2019-09-21 14:00:00 14.9 4 Sur 21 Sudeste 0.4 -- -- 98
2019-09-21 13:00:00 14.3 5 Sudeste 25 Sudeste 0.2 -- -- 97
2019-09-21 12:00:00 13.8 4 Sudeste 11 Este 2 -- -- 98
2019-09-21 11:00:00 13.2 3 Sudeste 9 Sudeste 0.6 -- -- 98
2019-09-21 10:00:00 12.6 0 Calma 3 Noroeste 0.2 -- -- 97
2019-09-21 09:00:00 12.4 0 Calma 0 Calma 0.4 -- -- 97
2019-09-21 08:00:00 12.3 0 Calma 3 Sudeste 0 -- -- 96
2019-09-21 07:00:00 12.4 0 Calma 10 Sudeste 0.2 -- -- 96
2019-09-21 06:00:00 12.1 2 Sudeste 8 Sudeste 0 -- -- 96
2019-09-21 05:00:00 11.2 0 Calma 4 Oeste 0 -- -- 96
2019-09-21 04:00:00 10.7 0 Calma 2 Oeste 0 -- -- 95
2019-09-21 03:00:00 11.3 0 Calma 4 Norte 0 -- -- 95
2019-09-21 02:00:00 11.2 0 Calma 5 Norte 0 -- -- 94
2019-09-21 01:00:00 12.1 0 Calma 3 Norte 0 -- -- 91
2019-09-21 00:00:00 14.1 0 Calma 5 Norte 0 -- -- 88
2019-09-20 23:00:00 15 0 Calma 4 Norte 0 -- -- 82
2019-09-20 22:00:00 16.6 0 Calma 4 Nordeste 0 -- -- 78
2019-09-20 21:00:00 18.5 2 Sudeste 11 Sudeste 0 -- -- 60
2019-09-20 20:00:00 21 5 Sur 16 Sudoeste 0 -- -- 50
2019-09-20 19:00:00 21.3 3 Este 15 Sudeste 0 -- -- 63
2019-09-20 18:00:00 22.8 5 Sur 18 Sur 0 -- -- 50
2019-09-20 17:00:00 23.2 5 Sur 22 Sur 0 -- -- 47
2019-09-20 16:00:00 23 3 Sur 18 Sudeste 0 -- -- 50
2019-09-20 15:00:00 22.4 6 Sur 16 Sudoeste 0 -- -- 54
2019-09-20 14:00:00 22.9 4 Sudeste 13 Sudeste 0 -- -- 59
2019-09-20 13:00:00 21.3 5 Sudeste 11 Sudeste 0 -- -- 63
2019-09-20 12:00:00 17.4 0 Calma 8 Sudeste 0 -- -- 81
2019-09-20 11:00:00 15.2 2 Este 8 Sudeste 0 -- -- 89
2019-09-20 10:00:00 12.2 0 Calma 3 Oeste 0 -- -- 98
2019-09-20 09:00:00 10.6 0 Calma 3 Noroeste 0 -- -- 98
2019-09-20 08:00:00 10.1 0 Calma 4 Norte 0 -- -- 97
2019-09-20 07:00:00 10.5 0 Calma 4 Norte 0 -- -- 97
2019-09-20 06:00:00 10.7 0 Calma 5 Nordeste 0 -- -- 97
2019-09-20 05:00:00 10.7 0 Calma 4 Norte 0 -- -- 97
2019-09-20 04:00:00 11.1 0 Calma 4 Norte 0 -- -- 96
2019-09-20 03:00:00 11.5 0 Calma 5 Norte 0 -- -- 95
2019-09-20 02:00:00 11.2 0 Calma 7 Norte 0 -- -- 96
2019-09-20 01:00:00 11.2 0 Calma 4 Norte 0 -- -- 95
2019-09-20 00:00:00 11.8 2 Norte 4 Noroeste 0 -- -- 94
2019-09-19 23:00:00 13.1 0 Calma 4 Norte 0 -- -- 90
2019-09-19 22:00:00 14.8 0 Calma 5 Nordeste 0 -- -- 88
2019-09-19 21:00:00 16.8 0 Calma 5 Oeste 0 -- -- 83
2019-09-19 20:00:00 19.4 0 Calma 7 Noroeste 0 -- -- 72
2019-09-19 19:00:00 22.1 3 Noroeste 12 Norte 0 -- -- 57
2019-09-19 18:00:00 22.2 0 Calma 9 Sudeste 0 -- -- 61
2019-09-19 17:00:00 24.2 3 Sur 11 Sudeste 0 -- -- 48
2019-09-19 16:00:00 25.2 4 Sur 12 Sudeste 0 -- -- 47
2019-09-19 15:00:00 24.6 5 Sur 15 Este 0 -- -- 49
2019-09-19 14:00:00 24.2 5 Sur 13 Sudeste 0 -- -- 50
2019-09-19 13:00:00 22.4 3 Sur 9 Este 0 -- -- 59
2019-09-19 12:00:00 20.2 3 Sur 9 Sur 0 -- -- 69
2019-09-19 11:00:00 15.5 3 Sudeste 5 Sudeste 0 -- -- 99
2019-09-19 10:00:00 10.4 0 Calma 3 Norte 0 -- -- 100
2019-09-19 09:00:00 7.9 0 Calma 2 Oeste 0 -- -- 98
2019-09-19 08:00:00 8.1 0 Calma 2 Noroeste 0 -- -- 98
2019-09-19 07:00:00 8.6 0 Calma 2 Noroeste 0 -- -- 96
2019-09-19 06:00:00 9.1 0 Calma 2 Noroeste 0 -- -- 96
2019-09-19 05:00:00 9.4 0 Calma 4 Norte 0 -- -- 97
2019-09-19 04:00:00 9.5 0 Calma 4 Norte 0 -- -- 96
2019-09-19 03:00:00 10.3 0 Calma 3 Oeste 0 -- -- 95
2019-09-19 02:00:00 11 0 Calma 5 Oeste 0 -- -- 95
2019-09-19 01:00:00 11.5 0 Calma 4 Norte 0 -- -- 94
2019-09-19 00:00:00 12.3 0 Calma 4 Norte 0 -- -- 91
2019-09-18 23:00:00 13.7 0 Calma 5 Norte 0 -- -- 88
2019-09-18 22:00:00 15.4 0 Calma 5 Norte 0 -- -- 84
2019-09-18 21:00:00 17.2 2 Noroeste 6 Noroeste 0 -- -- 76
2019-09-18 20:00:00 20.7 0 Calma 8 Este 0 -- -- 59
2019-09-18 19:00:00 24 0 Calma 6 Sudoeste 0 -- -- 46
2019-09-18 18:00:00 25.3 2 Noroeste 9 Oeste 0 -- -- 41
2019-09-18 17:00:00 25.3 4 Sudeste 9 Sur 0 -- -- 42
2019-09-18 16:00:00 24.7 4 Sudoeste 12 Sudeste 0 -- -- 42
2019-09-18 15:00:00 24 3 Sudeste 10 Sudeste 0 -- -- 46
2019-09-18 14:00:00 23.1 4 Este 14 Sudeste 0 -- -- 51
2019-09-18 13:00:00 21.1 3 Este 8 Este 0 -- -- 60
2019-09-18 12:00:00 17.8 0 Calma 8 Sudeste 0 -- -- 86
2019-09-18 11:00:00 13.7 0 Calma 4 Este 0 -- -- 100
2019-09-18 10:00:00 8.4 0 Calma 4 Norte 0 -- -- 100
2019-09-18 09:00:00 6.4 0 Calma 3 Oeste 0 -- -- 99
2019-09-18 08:00:00 6.5 0 Calma 3 Norte 0 -- -- 98
2019-09-18 07:00:00 7.3 0 Calma 3 Oeste 0 -- -- 98
2019-09-18 06:00:00 8.1 0 Calma 4 Oeste 0 -- -- 98
2019-09-18 05:00:00 8.8 0 Calma 4 Oeste 0 -- -- 98
2019-09-18 04:00:00 9.3 0 Calma 7 Noroeste 0 -- -- 98
2019-09-18 03:00:00 10 2 Norte 8 Norte 0 -- -- 98
2019-09-18 02:00:00 10.5 3 Sur 9 Noroeste 0 -- -- 98
2019-09-18 01:00:00 10.7 0 Calma 6 Este 0 -- -- 97
2019-09-18 00:00:00 11.4 0 Calma 5 Norte 0 -- -- 95
2019-09-17 23:00:00 12.6 0 Calma 5 Noroeste 0.2 -- -- 96
2019-09-17 22:00:00 13 4 Norte 12 Oeste 0 -- -- 94
2019-09-17 21:00:00 14.3 3 Norte 23 Norte 0.2 -- -- 94
2019-09-15 18:00:00 21.2 0 Calma 14 Este 0 -- -- 59
2019-09-15 17:00:00 22.5 6 Este 20 Sudeste 0 -- -- 55
2019-09-15 16:00:00 19.5 0 Calma 22 Este 0.2 -- -- 69
2019-09-15 15:00:00 19.5 3 Sudoeste 17 Norte 0 -- -- 68
2019-09-15 14:00:00 20.2 6 Este 29 Este 0 -- -- 59
2019-09-15 13:00:00 22.8 6 Este 19 Sudeste 0 -- -- 52
2019-09-15 12:00:00 20 5 Este 13 Este 0 -- -- 65
2019-09-15 11:00:00 15.1 2 Oeste 13 Sudeste 0 -- -- 87
2019-09-15 10:00:00 13.5 2 Sudeste 6 Norte 0 -- -- 95
2019-09-15 09:00:00 11 0 Calma 7 Norte 0 -- -- 97
2019-09-15 08:00:00 10.2 0 Calma 5 Oeste 0 -- -- 96
2019-09-15 07:00:00 10.2 0 Calma 8 Norte 0 -- -- 94
2019-09-15 06:00:00 10.7 0 Calma 4 Norte 0 -- -- 94
2019-09-15 05:00:00 11.6 0 Calma 6 Norte 0 -- -- 91
2019-09-15 04:00:00 12.1 2 Norte 5 Noroeste 0 -- -- 89
2019-09-15 03:00:00 12.6 2 Norte 5 Norte 0 -- -- 88
2019-09-15 02:00:00 14.1 0 Calma 5 Nordeste 0 -- -- 83
2019-09-15 01:00:00 14.5 2 Norte 5 Norte 0 -- -- 83
2019-09-15 00:00:00 16.3 0 Calma 7 Norte 0 -- -- 77
2019-09-14 23:00:00 17.5 0 Calma 9 Norte 0 -- -- 71
2019-09-14 22:00:00 18.9 3 Nordeste 13 Este 0 -- -- 59
2019-09-14 21:00:00 19.9 0 Calma 12 Este 0 -- -- 58
2019-09-14 20:00:00 22 5 Este 20 Este 0 -- -- 45
2019-09-14 19:00:00 23.6 3 Nordeste 22 Este 0 -- -- 42
2019-09-14 18:00:00 24.4 6 Nordeste 20 Nordeste 0 -- -- 42
2019-09-14 17:00:00 25.3 7 Este 24 Sudeste 0 -- -- 41
2019-09-14 16:00:00 25.6 8 Nordeste 24 Nordeste 0 -- -- 42
2019-09-14 15:00:00 25.7 6 Nordeste 32 Este 0 -- -- 45
2019-09-14 14:00:00 24 6 Nordeste 24 Sudeste 0 -- -- 49
2019-09-14 13:00:00 22.4 7 Este 29 Este 0 -- -- 56
2019-09-14 12:00:00 21.3 5 Sudeste 16 Norte 0 -- -- 61
2019-09-14 11:00:00 17.8 3 Nordeste 9 Este 0 -- -- 71
2019-09-14 10:00:00 13.8 0 Calma 5 Norte 0 -- -- 88
2019-09-14 09:00:00 11.6 0 Calma 7 Norte 0 -- -- 93
2019-09-14 08:00:00 10.5 2 Nordeste 9 Norte 0 -- -- 94
2019-09-14 07:00:00 10.2 0 Calma 6 Norte 0 -- -- 93
2019-09-14 06:00:00 11.1 2 Norte 4 Norte 0 -- -- 89
2019-09-14 05:00:00 12.5 0 Calma 4 Nordeste 0 -- -- 84
2019-09-14 04:00:00 14.3 0 Calma 6 Nordeste 0 -- -- 77
2019-09-14 03:00:00 14.3 0 Calma 5 Norte 0 -- -- 80
2019-09-14 02:00:00 14 0 Calma 4 Norte 0 -- -- 79
2019-09-14 01:00:00 13.6 2 Nordeste 5 Norte 0 -- -- 79
2019-09-14 00:00:00 14.5 0 Calma 8 Oeste 0 -- -- 74
2019-09-13 23:00:00 15.9 0 Calma 10 Este 0 -- -- 67
2019-09-13 22:00:00 16.7 0 Calma 9 Este 0 -- -- 61
2019-09-13 21:00:00 19.1 3 Nordeste 16 Nordeste 0 -- -- 51
2019-09-13 20:00:00 21.8 5 Nordeste 22 Sudeste 0 -- -- 43
2019-09-13 19:00:00 25.2 5 Nordeste 22 Este 0 -- -- 37
2019-09-13 18:00:00 27.1 7 Este 26 Sudeste 0 -- -- 34
2019-09-13 17:00:00 28.1 6 Este 20 Sudeste 0 -- -- 31
2019-09-13 16:00:00 28.3 5 Este 25 Este 0 -- -- 32
2019-09-13 15:00:00 27.5 7 Este 19 Este 0 -- -- 34
2019-09-13 14:00:00 26.6 6 Este 25 Este 0 -- -- 35
2019-09-13 13:00:00 25.2 6 Este 20 Este 0 -- -- 40
2019-09-13 12:00:00 23.1 5 Este 16 Este 0 -- -- 45
2019-09-13 11:00:00 17.7 0 Calma 5 Oeste 0 -- -- 74
2019-09-13 10:00:00 10.2 2 Oeste 7 Oeste 0 -- -- 99
2019-09-13 09:00:00 7.2 2 Norte 5 Nordeste 0 -- -- 97
2019-09-13 08:00:00 6.9 0 Calma 4 Norte 0 -- -- 96
2019-09-13 07:00:00 7.4 0 Calma 3 Noroeste 0 -- -- 94
2019-09-13 06:00:00 8.1 0 Calma 5 Norte 0 -- -- 92
2019-09-13 05:00:00 8.9 0 Calma 6 Noroeste 0 -- -- 91
2019-09-13 04:00:00 9.4 0 Calma 7 Norte 0 -- -- 88
2019-09-13 03:00:00 9.8 2 Norte 10 Nordeste 0 -- -- 86
2019-09-13 02:00:00 9.4 2 Norte 6 Norte 0 -- -- 88
2019-09-13 01:00:00 9.5 0 Calma 7 Nordeste 0 -- -- 85
2019-09-13 00:00:00 10.7 2 Norte 6 Norte 0 -- -- 79
2019-09-12 23:00:00 12.1 2 Norte 6 Norte 0 -- -- 73
2019-09-12 22:00:00 14.1 3 Norte 5 Norte 0 -- -- 69
2019-09-12 21:00:00 18.5 4 Noroeste 8 Noroeste 0 -- -- 58
2019-09-12 20:00:00 23.3 3 Este 13 Nordeste 0 -- -- 42
2019-09-12 19:00:00 26 5 Este 17 Este 0 -- -- 33
2019-09-12 18:00:00 27.3 6 Sudeste 16 Sudeste 0 -- -- 30
2019-09-12 17:00:00 27.6 5 Sudeste 20 Este 0 -- -- 29
2019-09-12 16:00:00 26.8 6 Sudeste 21 Sudeste 0 -- -- 31
2019-09-12 15:00:00 25.9 5 Este 13 Sudeste 0 -- -- 34
2019-09-12 14:00:00 24.4 5 Oeste 10 Oeste 0 -- -- 39
2019-09-12 13:00:00 22.2 3 Sur 10 Este 0 -- -- 45
2019-09-12 12:00:00 18.8 2 Sur 4 Sudeste 0 -- -- 55
2019-09-12 11:00:00 13 0 Calma 3 Sudeste 0 -- -- 79
2019-09-12 10:00:00 6.1 0 Calma 3 Norte 0 -- -- 100
2019-09-12 09:00:00 2.9 0 Calma 4 Nordeste 0 -- -- 98
2019-09-12 08:00:00 2.8 0 Calma 5 Norte 0 -- -- 96
2019-09-12 07:00:00 3.3 0 Calma 4 Noroeste 0 -- -- 96
2019-09-12 06:00:00 3.9 0 Calma 4 Norte 0 -- -- 95
2019-09-12 05:00:00 4.6 0 Calma 5 Norte 0 -- -- 95
2019-09-12 04:00:00 5.5 0 Calma 5 Norte 0 -- -- 93
2019-09-12 03:00:00 6.5 2 Nordeste 6 Norte 0 -- -- 91
2019-09-12 02:00:00 7.6 0 Calma 7 Norte 0 -- -- 88
2019-09-12 01:00:00 8.9 2 Norte 9 Noroeste 0 -- -- 83
2019-09-12 00:00:00 11.2 2 Norte 9 Este 0 -- -- 75
2019-09-11 23:00:00 13.2 3 Nordeste 13 Este 0 -- -- 66
2019-09-11 22:00:00 13.5 0 Calma 8 Sudeste 0 -- -- 65
2019-09-11 21:00:00 17.3 2 Nordeste 13 Este 0 -- -- 52
2019-09-11 20:00:00 20.9 5 Este 21 Este 0 -- -- 40
2019-09-11 19:00:00 23.2 4 Nordeste 17 Nordeste 0 -- -- 36
2019-09-11 18:00:00 24.7 6 Nordeste 17 Norte 0 -- -- 32
2019-09-11 17:00:00 24.3 5 Sudeste 19 Sudeste 0 -- -- 35
2019-09-11 16:00:00 24 6 Sudeste 21 Sudeste 0 -- -- 37
2019-09-11 15:00:00 23.4 8 Sudeste 19 Sudeste 0 -- -- 39
2019-09-11 14:00:00 22.1 6 Sudeste 18 Este 0 -- -- 40
2019-09-11 13:00:00 20 4 Oeste 9 Oeste 0 -- -- 49
2019-09-11 12:00:00 17.6 4 Noroeste 8 Noroeste 0 -- -- 56
2019-09-11 11:00:00 13.3 0 Calma 4 Noroeste 0 -- -- 70
2019-09-11 10:00:00 5.6 0 Calma 4 Nordeste 0 -- -- 99
2019-09-11 09:00:00 3.4 0 Calma 3 Noroeste 0 -- -- 99
2019-09-11 08:00:00 2.6 0 Calma 4 Norte 0 -- -- 98
2019-09-11 07:00:00 2.4 0 Calma 3 Norte 0 -- -- 97
2019-09-11 06:00:00 2.9 0 Calma 4 Nordeste 0 -- -- 96
2019-09-11 05:00:00 3.6 0 Calma 7 Este 0 -- -- 95
2019-09-11 04:00:00 4.3 0 Calma 5 Este 0 -- -- 93
2019-09-11 03:00:00 5 2 Noroeste 5 Norte 0 -- -- 92
2019-09-11 02:00:00 6.1 0 Calma 6 Noroeste 0 -- -- 87
2019-09-11 01:00:00 7.5 4 Sur 12 Sur 0 -- -- 83
2019-09-11 00:00:00 7 3 Noroeste 7 Norte 0 -- -- 86
2019-09-10 23:00:00 9 2 Este 10 Sudeste 0 -- -- 77
2019-09-10 22:00:00 11.4 0 Calma 21 Noroeste 0 -- -- 67
2019-09-10 21:00:00 12.3 5 Norte 22 Norte 0 -- -- 64
2019-09-10 20:00:00 14.2 9 Norte 29 Noroeste 0 -- -- 55
2019-09-10 19:00:00 16.2 8 Norte 27 Noroeste 0 -- -- 50
2019-09-10 18:00:00 17.8 9 Norte 33 Noroeste 0 -- -- 46
2019-09-10 17:00:00 18.1 12 Noroeste 32 Noroeste 0 -- -- 43
2019-09-10 16:00:00 18.1 11 Noroeste 36 Noroeste 0 -- -- 43
2019-09-10 15:00:00 17.1 7 Noroeste 39 Norte 0 -- -- 46
2019-09-10 14:00:00 17.3 13 Norte 46 Noroeste 0 -- -- 41
2019-09-10 13:00:00 16.3 7 Norte 29 Noroeste 0 -- -- 43
2019-09-10 12:00:00 14.4 9 Noroeste 31 Oeste 0 -- -- 49
2019-09-10 11:00:00 12.3 11 Norte 32 Norte 0 -- -- 53
2019-09-10 10:00:00 10.2 8 Norte 26 Noroeste 0 -- -- 63
2019-09-10 09:00:00 8.5 2 Sur 15 Nordeste 0 -- -- 67
2019-09-10 08:00:00 7.6 0 Calma 8 Nordeste 0 -- -- 78
2019-09-10 07:00:00 7.7 0 Calma 19 Norte 0 -- -- 75
2019-09-10 06:00:00 8.2 4 Norte 23 Noroeste 0 -- -- 71
2019-09-10 05:00:00 8 6 Noroeste 17 Norte 0 -- -- 72
2019-09-10 04:00:00 6.5 0 Calma 7 Norte 0 -- -- 80
2019-09-10 03:00:00 7.9 0 Calma 10 Oeste 0 -- -- 82
2019-09-10 02:00:00 9.7 0 Calma 13 Oeste 0 -- -- 84
2019-09-10 01:00:00 10.8 0 Calma 7 Oeste 0 -- -- 83
2019-09-10 00:00:00 12.7 3 Noroeste 18 Oeste 0 -- -- 74
2019-09-09 23:00:00 14.1 9 Noroeste 27 Oeste 0 -- -- 65
2019-09-09 22:00:00 14.7 12 Noroeste 45 Noroeste 0 -- -- 60
2019-09-09 21:00:00 15.6 7 Noroeste 26 Oeste 0 -- -- 59
2019-09-09 20:00:00 17.6 10 Noroeste 35 Noroeste 0 -- -- 51
2019-09-09 19:00:00 19.1 12 Noroeste 30 Oeste 0 -- -- 43
2019-09-09 18:00:00 20.3 8 Oeste 26 Oeste 0 -- -- 39
2019-09-09 17:00:00 21 8 Oeste 30 Oeste 0 -- -- 35
2019-09-09 16:00:00 20.7 10 Oeste 31 Oeste 0 -- -- 23
2019-09-09 15:00:00 21.6 9 Oeste 24 Oeste 0 -- -- 28
2019-09-09 14:00:00 22.5 8 Sudoeste 25 Sudoeste 0 -- -- 29
2019-09-09 13:00:00 21.7 5 Sudoeste 17 Oeste 0 -- -- 35
2019-09-09 12:00:00 19.5 3 Sudeste 9 Este 0 -- -- 56
2019-09-09 11:00:00 13.2 0 Calma 5 Este 0 -- -- 79
2019-09-09 10:00:00 5.6 0 Calma 4 Sudeste 0 -- -- 100
2019-09-09 09:00:00 2.3 0 Calma 3 Norte 0 -- -- 98
2019-09-09 08:00:00 2.3 0 Calma 4 Norte 0 -- -- 97
2019-09-09 07:00:00 2.8 0 Calma 3 Norte 0 -- -- 97
2019-09-09 06:00:00 3.3 0 Calma 2 Norte 0 -- -- 96
2019-09-09 05:00:00 4.2 0 Calma 3 Norte 0 -- -- 95
2019-09-09 04:00:00 5 0 Calma 3 Norte 0 -- -- 94
2019-09-09 03:00:00 6 0 Calma 5 Nordeste 0 -- -- 93
2019-09-09 02:00:00 7 0 Calma 8 Este 0 -- -- 92
2019-09-09 01:00:00 7.9 0 Calma 3 Oeste 0 -- -- 89
2019-09-09 00:00:00 9.4 0 Calma 6 Norte 0 -- -- 84
2019-09-08 23:00:00 11.2 2 Norte 5 Norte 0 -- -- 80
2019-09-08 22:00:00 13.5 3 Norte 6 Norte 0 -- -- 76
2019-09-08 21:00:00 17.8 3 Norte 6 Oeste 0 -- -- 59
2019-09-08 20:00:00 21.9 3 Sur 11 Sur 0 -- -- 43
2019-09-08 19:00:00 24.9 3 Sudoeste 12 Sur 0 -- -- 34
2019-09-08 18:00:00 26.1 4 Sudeste 12 Sur 0 -- -- 35
2019-09-08 17:00:00 25.9 3 Noroeste 10 Sudoeste 0 -- -- 34
2019-09-08 16:00:00 24.7 4 Sudeste 11 Sudeste 0 -- -- 34
2019-09-08 15:00:00 23.5 4 Sur 15 Sur 0 -- -- 33
2019-09-08 14:00:00 22.2 3 Sudoeste 9 Sur 0 -- -- 42
2019-09-08 13:00:00 20.6 4 Sudeste 11 Sur 0 -- -- 51
2019-09-08 12:00:00 18.4 4 Sur 10 Sudeste 0 -- -- 55
2019-09-08 11:00:00 13.8 0 Calma 3 Oeste 0 -- -- 76
2019-09-08 10:00:00 5.8 0 Calma 4 Norte 0 -- -- 100
2019-09-08 09:00:00 2.1 0 Calma 4 Norte 0 -- -- 99
2019-09-08 08:00:00 1.7 0 Calma 3 Norte 0 -- -- 96
2019-09-08 07:00:00 2.1 0 Calma 2 Oeste 0 -- -- 95
2019-09-08 06:00:00 3 0 Calma 4 Este 0 -- -- 96
2019-09-08 05:00:00 3.6 0 Calma 4 Norte 0 -- -- 93
2019-09-08 04:00:00 4.2 0 Calma 4 Nordeste 0 -- -- 93
2019-09-08 03:00:00 5.1 0 Calma 4 Norte 0 -- -- 89
2019-09-08 02:00:00 6.6 0 Calma 5 Norte 0 -- -- 83
2019-09-08 01:00:00 7.9 3 Noroeste 6 Oeste 0 -- -- 78
2019-09-08 00:00:00 7.1 2 Oeste 8 Norte 0 -- -- 77
2019-09-07 23:00:00 8.6 0 Calma 8 Norte 0 -- -- 68
2019-09-07 22:00:00 10.9 2 Norte 6 Norte 0 -- -- 64
2019-09-07 21:00:00 15.6 3 Norte 9 Noroeste 0 -- -- 51
2019-09-07 20:00:00 20.4 2 Este 10 Este 0 -- -- 37
2019-09-07 19:00:00 22.7 4 Este 9 Sudeste 0 -- -- 26
2019-09-07 18:00:00 24 4 Este 11 Este 0 -- -- 24
2019-09-07 17:00:00 23.9 4 Este 13 Este 0 -- -- 25
2019-09-07 16:00:00 23.4 6 Este 22 Nordeste 0 -- -- 25
2019-09-07 15:00:00 23 6 Nordeste 20 Este 0 -- -- 24
2019-09-07 14:00:00 21.7 4 Nordeste 8 Este 0 -- -- 26
2019-09-07 13:00:00 20.2 3 Nordeste 11 Este 0 -- -- 28
2019-09-07 12:00:00 16.5 2 Sudeste 5 Sudeste 0 -- -- 48
2019-09-07 11:00:00 10.5 0 Calma 5 Oeste 0 -- -- 85
2019-09-07 10:00:00 3.2 0 Calma 4 Norte 0 -- -- 100
2019-09-07 09:00:00 -0.5 0 Calma 3 Norte 0 -- -- 98
2019-09-07 08:00:00 -0.5 0 Calma 4 Norte 0 -- -- 97
2019-09-07 07:00:00 0.2 0 Calma 3 Noroeste 0 -- -- 96
2019-09-07 06:00:00 1.1 0 Calma 4 Norte 0 -- -- 96
2019-09-07 05:00:00 2.1 0 Calma 5 Norte 0 -- -- 96
2019-09-07 04:00:00 3.1 0 Calma 4 Norte 0 -- -- 94
2019-09-07 03:00:00 4.6 0 Calma 4 Norte 0 -- -- 93
2019-09-07 02:00:00 5.8 0 Calma 7 Noroeste 0 -- -- 93
2019-09-07 01:00:00 6.7 2 Norte 5 Norte 0 -- -- 89
2019-09-07 00:00:00 8 0 Calma 5 Norte 0 -- -- 85
2019-09-06 23:00:00 9.1 0 Calma 5 Norte 0 -- -- 82
2019-09-06 22:00:00 11.3 0 Calma 6 Oeste 0 -- -- 74
2019-09-06 21:00:00 15.5 0 Calma 10 Sudeste 0 -- -- 59
2019-09-06 20:00:00 19.2 3 Este 14 Sudeste 0 -- -- 41
2019-09-06 19:00:00 21.2 5 Este 17 Sudeste 0 -- -- 35
2019-09-06 18:00:00 22.3 5 Sudeste 17 Este 0 -- -- 34
2019-09-06 17:00:00 22.1 5 Sudeste 18 Este 0 -- -- 37
2019-09-06 16:00:00 21.1 6 Sudeste 23 Este 0 -- -- 38
2019-09-06 15:00:00 20.1 6 Este 19 Este 0 -- -- 42
2019-09-06 14:00:00 18.9 5 Este 20 Sudeste 0 -- -- 47
2019-09-06 13:00:00 17.5 5 Sudeste 15 Sudeste 0 -- -- 55
2019-09-06 12:00:00 15.4 3 Este 16 Sudeste 0 -- -- 60
2019-09-06 11:00:00 11.9 3 Sur 8 Sudeste 0 -- -- 78
2019-09-06 10:00:00 5.1 0 Calma 2 Este 0 -- -- 100
2019-09-06 09:00:00 1.7 0 Calma 3 Norte 0 -- -- 97
2019-09-06 08:00:00 2 0 Calma 4 Noroeste 0 -- -- 96
2019-09-06 07:00:00 3 0 Calma 5 Norte 0 -- -- 96
2019-09-06 06:00:00 3.7 0 Calma 5 Oeste 0 -- -- 95
2019-09-06 05:00:00 4.8 0 Calma 7 Sudoeste 0 -- -- 94
2019-09-06 04:00:00 5.7 0 Calma 5 Oeste 0 -- -- 93
2019-09-06 03:00:00 7.2 0 Calma 9 Norte 0 -- -- 89
2019-09-06 02:00:00 9.3 0 Calma 13 Norte 0 -- -- 83
2019-09-06 01:00:00 11.3 4 Nordeste 20 Este 0 -- -- 78
2019-09-06 00:00:00 11.9 3 Sur 10 Oeste 0 -- -- 75
2019-09-05 23:00:00 11.5 4 Sudeste 11 Este 0 -- -- 73
2019-09-05 22:00:00 12.5 0 Calma 8 Este 0 -- -- 69
2019-09-05 21:00:00 15.8 2 Noroeste 13 Sudeste 0 -- -- 59
2019-09-05 20:00:00 19.7 4 Este 17 Este 0 -- -- 40
2019-09-05 19:00:00 21.8 5 Este 21 Este 0 -- -- 35
2019-09-05 18:00:00 23 5 Este 19 Sudeste 0 -- -- 31
2019-09-05 17:00:00 23.3 5 Sudeste 22 Este 0 -- -- 31
2019-09-05 16:00:00 22.5 7 Este 26 Este 0 -- -- 35
2019-09-05 15:00:00 22.1 6 Este 26 Este 0 -- -- 38
2019-09-05 14:00:00 20.8 5 Este 22 Este 0 -- -- 40
2019-09-05 13:00:00 19.3 6 Sudeste 22 Este 0 -- -- 45
2019-09-05 12:00:00 17.5 6 Este 18 Este 0 -- -- 53
2019-09-05 11:00:00 13.9 2 Sur 6 Sur 0 -- -- 70
2019-09-05 10:00:00 7.3 0 Calma 4 Nordeste 0 -- -- 100
2019-09-05 09:00:00 4.1 0 Calma 4 Norte 0 -- -- 98
2019-09-05 08:00:00 4.1 0 Calma 3 Norte 0 -- -- 96
2019-09-05 07:00:00 5.1 0 Calma 3 Noroeste 0 -- -- 96
2019-09-05 06:00:00 5.8 0 Calma 3 Nordeste 0 -- -- 95
2019-09-05 05:00:00 6.6 2 Norte 5 Norte 0 -- -- 95
2019-09-05 04:00:00 7.4 0 Calma 4 Norte 0 -- -- 93
2019-09-05 03:00:00 8.7 0 Calma 4 Norte 0 -- -- 90
2019-09-05 02:00:00 10.4 0 Calma 6 Norte 0 -- -- 87
2019-09-05 01:00:00 12.2 2 Nordeste 5 Norte 0 -- -- 82
2019-09-05 00:00:00 14.3 3 Nordeste 9 Sudeste 0 -- -- 74
2019-09-04 23:00:00 16.9 3 Sudeste 12 Sudeste 0 -- -- 59
2019-09-04 22:00:00 17.9 4 Este 11 Nordeste 0 -- -- 62
2019-09-04 21:00:00 20.8 0 Calma 12 Norte 0 -- -- 59
2019-09-04 20:00:00 25.1 5 Noroeste 15 Noroeste 0 -- -- 47
2019-09-04 19:00:00 28 6 Noroeste 15 Noroeste 0 -- -- 40
2019-09-04 18:00:00 30.1 4 Oeste 9 Oeste 0 -- -- 32
2019-09-04 17:00:00 30.1 3 Sudoeste 8 Oeste 0 -- -- 32
2019-09-04 16:00:00 29.8 3 Nordeste 9 Sudoeste 0 -- -- 33
2019-09-04 15:00:00 28.5 4 Noroeste 11 Noroeste 0 -- -- 32
2019-09-04 14:00:00 27.3 4 Noroeste 6 Noroeste 0 -- -- 38
2019-09-04 13:00:00 26 2 Sudeste 9 Sur 0 -- -- 42
2019-09-04 12:00:00 22.5 2 Sudeste 6 Sur 0 -- -- 54
2019-09-04 11:00:00 16.8 0 Calma 4 Este 0 -- -- 76
2019-09-04 10:00:00 9.6 0 Calma 0 Calma 0 -- -- 100
2019-09-04 09:00:00 6.1 0 Calma 2 Norte 0 -- -- 99
2019-09-04 08:00:00 5.8 0 Calma 3 Norte 0 -- -- 96
2019-09-04 07:00:00 6.3 0 Calma 2 Norte 0 -- -- 96
2019-09-04 06:00:00 7.1 0 Calma 3 Norte 0 -- -- 95
2019-09-04 05:00:00 7.7 0 Calma 4 Norte 0 -- -- 95
2019-09-04 04:00:00 8.4 0 Calma 3 Sudeste 0 -- -- 94
2019-09-04 03:00:00 9.4 0 Calma 3 Norte 0 -- -- 93
2019-09-04 02:00:00 10.3 0 Calma 3 Norte 0 -- -- 91
2019-09-04 01:00:00 11.3 0 Calma 6 Norte 0 -- -- 89
2019-09-04 00:00:00 12.7 2 Norte 6 Nordeste 0 -- -- 86
2019-09-03 23:00:00 14.4 3 Norte 7 Norte 0 -- -- 82
2019-09-03 22:00:00 16.6 2 Norte 5 Norte 0 -- -- 77
2019-09-03 21:00:00 20.4 0 Calma 4 Sur 0 -- -- 68
2019-09-03 20:00:00 24.8 2 Sur 12 Sur 0 -- -- 47
2019-09-03 19:00:00 28.1 4 Sudoeste 13 Sudoeste 0 -- -- 31
2019-09-03 18:00:00 29.2 4 Sudoeste 14 Sudoeste 0 -- -- 30
2019-09-03 17:00:00 29.1 4 Sudoeste 13 Sur 0 -- -- 33
2019-09-03 16:00:00 28.1 3 Nordeste 9 Sur 0 -- -- 36
2019-09-03 15:00:00 26.2 3 Este 12 Sur 0 -- -- 38
2019-09-03 14:00:00 24.2 4 Sudeste 10 Sudeste 0 -- -- 40
2019-09-03 13:00:00 21.8 3 Noroeste 7 Sudoeste 0 -- -- 43
2019-09-03 12:00:00 18.9 0 Calma 5 Sur 0 -- -- 51
2019-09-03 11:00:00 13.5 0 Calma 4 Norte 0 -- -- 67
2019-09-03 10:00:00 7 0 Calma 3 Norte 0 -- -- 100
2019-09-03 09:00:00 3.6 0 Calma 3 Sudeste 0 -- -- 99
2019-09-03 08:00:00 3.4 0 Calma 2 Noroeste 0 -- -- 97
2019-09-03 07:00:00 4.1 0 Calma 3 Noroeste 0 -- -- 96
2019-09-03 06:00:00 4.9 0 Calma 3 Norte 0 -- -- 96
2019-09-03 05:00:00 5.8 0 Calma 3 Norte 0 -- -- 96
2019-09-03 04:00:00 6.7 0 Calma 4 Noroeste 0 -- -- 94
2019-09-03 03:00:00 7.8 0 Calma 5 Norte 0 -- -- 94
2019-09-03 02:00:00 8.9 0 Calma 5 Norte 0 -- -- 93
2019-09-03 01:00:00 10.3 0 Calma 5 Norte 0 -- -- 91
2019-09-03 00:00:00 11.7 0 Calma 7 Norte 0 -- -- 88
2019-09-02 23:00:00 13.4 0 Calma 4 Norte 0 -- -- 84
2019-09-02 22:00:00 15.6 2 Norte 9 Oeste 0 -- -- 78
2019-09-02 21:00:00 19.5 2 Oeste 7 Este 0 -- -- 67
2019-09-02 20:00:00 23.1 3 Nordeste 12 Sur 0 -- -- 52
2019-09-02 19:00:00 25.4 3 Este 7 Nordeste 0 -- -- 44
2019-09-02 18:00:00 26.2 2 Sudeste 3 Este 0 -- -- 41
2019-09-02 17:00:00 25.8 2 Este 6 Norte 0 -- -- 43
2019-09-02 16:00:00 25 2 Sudeste 4 Sudeste 0 -- -- 45
2019-09-02 15:00:00 23.5 2 Este 4 Nordeste 0 -- -- 49
2019-09-02 14:00:00 22 2 Sudeste 3 Sur 0 -- -- 53
2019-09-02 13:00:00 20.7 2 Este 5 Sur 0 -- -- 56
2019-09-02 12:00:00 18.5 0 Calma 2 Sudoeste 0 -- -- 62
2019-09-02 11:00:00 15.3 0 Calma 4 Sudeste 0 -- -- 75
2019-09-02 10:00:00 9.8 0 Calma 3 Sudeste 0 -- -- 98
2019-09-02 09:00:00 7.3 0 Calma 2 Noroeste 0 -- -- 98
2019-09-02 08:00:00 7.1 0 Calma 3 Este 0 -- -- 97
2019-09-02 07:00:00 7.5 0 Calma 3 Norte 0 -- -- 95
2019-09-02 06:00:00 8.1 0 Calma 2 Norte 0 -- -- 94
2019-09-02 05:00:00 9.1 0 Calma 3 Noroeste 0 -- -- 92
2019-09-02 04:00:00 10.3 0 Calma 3 Norte 0 -- -- 88
2019-09-02 03:00:00 12.1 2 Noroeste 3 Este 0 -- -- 82
2019-09-02 02:00:00 13.6 0 Calma 3 Nordeste 0 -- -- 74
2019-09-02 01:00:00 15.1 0 Calma 3 Sudeste 0 -- -- 69
2019-09-02 00:00:00 16.3 2 Sudeste 3 Este 0 -- -- 67
2019-09-01 23:00:00 17.1 2 Sudoeste 3 Noroeste 0 -- -- 66
2019-09-01 22:00:00 18 2 Sudeste 3 Sudeste 0 -- -- 65
2019-09-01 21:00:00 21.5 2 Nordeste -- -- 0 -- -- 52
2019-09-01 20:00:00 24.1 2 Este 3 Este 0 -- -- 51
2019-09-01 19:00:00 26.4 2 Este -- -- 0 -- -- 40
2019-09-01 18:00:00 27.5 0 Calma -- -- 0 -- -- 38
2019-09-01 17:00:00 26.8 2 Sudeste -- -- 0 -- -- 41
2019-09-01 16:00:00 26.7 2 Sudeste -- -- 0 -- -- 40
2019-09-01 15:00:00 25.3 2 Sudeste -- -- 0 -- -- 46
2019-09-01 14:00:00 24.2 -- -- -- -- 0 -- -- 54
2019-09-01 13:00:00 22.2 0 Calma -- -- 0 -- -- 66
2019-09-01 12:00:00 19.3 0 Calma 2 Sur 0 -- -- 77
2019-09-01 11:00:00 16.2 0 Calma 2 Norte 0 -- -- 87
2019-09-01 10:00:00 10.5 0 Calma 2 Noroeste 0 -- -- 100
2019-09-01 09:00:00 7.2 0 Calma 2 Nordeste 0 -- -- 99
2019-09-01 08:00:00 6.5 0 Calma 2 Noroeste 0 -- -- 97
2019-09-01 07:00:00 6.9 0 Calma 2 Oeste 0 -- -- 97
2019-09-01 06:00:00 7.2 0 Calma 2 Norte 0 -- -- 97
2019-09-01 05:00:00 7.5 0 Calma 3 Norte 0 -- -- 96
2019-09-01 04:00:00 8.3 0 Calma 3 Noroeste 0 -- -- 95
2019-09-01 03:00:00 8.7 0 Calma 2 Este 0 -- -- 94
2019-09-01 02:00:00 9.8 0 Calma 2 Norte 0 -- -- 91
2019-09-01 01:00:00 11.2 0 Calma 2 Norte 0 -- -- 90
2019-09-01 00:00:00 12.7 0 Calma 2 Nordeste 0 -- -- 89
2019-08-31 23:00:00 15.1 0 Calma 2 Norte 0 -- -- 86
2019-08-31 22:00:00 17.6 0 Calma 2 Norte 0 -- -- 83
2019-08-31 21:00:00 22.2 2 Oeste 2 Noroeste 0 -- -- 68
2019-08-31 20:00:00 25.9 -- -- -- -- 0 -- -- 45
2019-08-31 19:00:00 27.8 -- -- -- -- 0 -- -- 43
2019-08-31 18:00:00 28.6 -- -- -- -- 0 -- -- 35
2019-08-31 17:00:00 28.9 -- -- -- -- 0 -- -- 30
2019-08-31 16:00:00 29.2 -- -- -- -- 0 -- -- 33
2019-08-31 15:00:00 28.8 -- -- -- -- 0 -- -- 33
2019-08-31 14:00:00 28 -- -- -- -- 0 -- -- 37
2019-08-31 13:00:00 27.1 2 Sudoeste -- -- 0 -- -- 41
2019-08-31 12:00:00 25 2 Sur 2 Sur 0 -- -- 56
2019-08-31 11:00:00 19.5 0 Calma 2 Sudeste 0 -- -- 81
2019-08-31 10:00:00 12.3 0 Calma 2 Norte 0 -- -- 100
2019-08-31 09:00:00 9.1 0 Calma 2 Noroeste 0 -- -- 99
2019-08-31 08:00:00 8.4 0 Calma 2 Oeste 0 -- -- 97
2019-08-31 07:00:00 8.8 0 Calma 2 Norte 0 -- -- 97
2019-08-31 06:00:00 9.4 0 Calma 2 Norte 0 -- -- 97
2019-08-31 05:00:00 9.8 0 Calma 2 Norte 0 -- -- 96
2019-08-31 04:00:00 10.4 0 Calma 2 Norte 0 -- -- 95
2019-08-31 03:00:00 10.9 0 Calma 2 Norte 0 -- -- 94
2019-08-31 02:00:00 11.8 0 Calma 2 Norte 0 -- -- 92
2019-08-31 01:00:00 12.7 0 Calma 2 Noroeste 0 -- -- 92
2019-08-31 00:00:00 13.7 0 Calma 2 Norte 0 -- -- 88
2019-08-30 23:00:00 15.3 0 Calma 2 Noroeste 0 -- -- 83
2019-08-30 22:00:00 17.5 0 Calma 2 Norte 0 -- -- 79
2019-08-30 21:00:00 21.8 0 Calma 2 Nordeste 0 -- -- 69
2019-08-30 20:00:00 25.1 0 Calma 5 Sudeste 0 -- -- 54
2019-08-30 19:00:00 28.9 4 Sur 16 Sur 0 -- -- 34
2019-08-30 18:00:00 30 4 Sur 17 Sur 0 -- -- 29
2019-08-30 17:00:00 30.1 5 Sudoeste 20 Sur 0 -- -- 29
2019-08-30 16:00:00 29.8 6 Sur 18 Sur 0 -- -- 27
2019-08-30 15:00:00 29.2 6 Sur 18 Sur 0 -- -- 36
2019-08-30 14:00:00 28.3 -- -- -- -- 0 -- -- 39
2019-08-30 13:00:00 26.2 -- -- -- -- 0 -- -- 48
2019-08-30 12:00:00 23.1 0 Calma 2 Este 0 -- -- 63
2019-08-30 11:00:00 18 0 Calma 2 Sudeste 0 -- -- 87
2019-08-30 10:00:00 11.4 0 Calma 2 Norte 0 -- -- 100
2019-08-30 09:00:00 8.1 0 Calma 2 Norte 0 -- -- 99
2019-08-30 08:00:00 7.6 0 Calma 2 Oeste 0 -- -- 97
2019-08-30 07:00:00 8.3 0 Calma 2 Norte 0 -- -- 96
2019-08-30 06:00:00 8.9 0 Calma 5 Norte 0 -- -- 96
2019-08-30 05:00:00 9.5 2 Norte 4 Norte 0 -- -- 97
2019-08-30 04:00:00 10 0 Calma 5 Este 0 -- -- 96
2019-08-30 03:00:00 10.8 0 Calma 4 Noroeste 0 -- -- 95
2019-08-30 02:00:00 11.8 0 Calma 4 Noroeste 0 -- -- 94
2019-08-30 01:00:00 12.6 0 Calma 6 Norte 0 -- -- 93
2019-08-30 00:00:00 13.8 0 Calma 5 Norte 0 -- -- 90
2019-08-29 23:00:00 15.4 0 Calma 6 Norte 0 -- -- 86
2019-08-29 22:00:00 17.7 0 Calma 5 Norte 0 -- -- 82
2019-08-29 21:00:00 21.2 2 Norte 4 Norte 0 -- -- 72
2019-08-29 20:00:00 25.5 3 Sur 10 Sudeste 0 -- -- 53
2019-08-29 19:00:00 28.3 3 Sudoeste 11 Oeste 0 -- -- 35
2019-08-29 18:00:00 29.1 5 Sudeste 13 Sudeste 0 -- -- 44
2019-08-29 17:00:00 29.2 4 Noroeste 11 Sur 0 -- -- 38
2019-08-29 16:00:00 28.8 3 Sur 10 Sudeste 0 -- -- 37
2019-08-29 15:00:00 27.8 4 Sur 11 Sudoeste 0 -- -- 39
2019-08-29 14:00:00 26.8 5 Sudeste 13 Sudeste 0 -- -- 45
2019-08-29 13:00:00 25.1 3 Este 9 Este 0 -- -- 55
2019-08-29 12:00:00 22.6 2 Sudeste 5 Sudeste 0 -- -- 68
2019-08-29 11:00:00 18 3 Sudeste 6 Este 0 -- -- 87
2019-08-29 10:00:00 11.7 0 Calma 3 Norte 0 -- -- 100
2019-08-29 09:00:00 8.8 0 Calma 2 Nordeste 0 -- -- 99
2019-08-29 08:00:00 8.4 0 Calma 3 Norte 0 -- -- 97
2019-08-29 07:00:00 9 0 Calma 4 Norte 0 -- -- 97
2019-08-29 06:00:00 9.6 0 Calma 4 Este 0 -- -- 97
2019-08-29 05:00:00 10.1 0 Calma 4 Norte 0 -- -- 97
2019-08-29 04:00:00 10.6 0 Calma 4 Norte 0 -- -- 96
2019-08-29 03:00:00 11.3 0 Calma 4 Norte 0 -- -- 96
2019-08-29 02:00:00 12.1 0 Calma 4 Oeste 0 -- -- 95
2019-08-29 01:00:00 12.9 0 Calma 4 Norte 0 -- -- 93
2019-08-29 00:00:00 14.1 0 Calma 4 Norte 0 -- -- 91
2019-08-28 23:00:00 15.7 0 Calma 4 Norte 0 -- -- 88
2019-08-28 22:00:00 18 0 Calma 5 Noroeste 0 -- -- 85
2019-08-28 21:00:00 20.6 0 Calma 4 Norte 0 -- -- 79
2019-08-28 20:00:00 23.8 0 Calma 8 Sudoeste 0 -- -- 61
2019-08-28 19:00:00 26.7 4 Sudoeste 10 Sur 0 -- -- 45
2019-08-28 18:00:00 27.2 3 Sudoeste 14 Sudeste 0 -- -- 48
2019-08-28 17:00:00 27.4 5 Sudeste 17 Sur 0 -- -- 49
2019-08-28 16:00:00 26.6 4 Sur 15 Sur 0 -- -- 46
2019-08-28 15:00:00 26 5 Sudoeste 14 Sudoeste 0 -- -- 47
2019-08-28 14:00:00 25.1 4 Sudoeste 11 Oeste 0 -- -- 52
2019-08-28 13:00:00 23.9 4 Sur 11 Sur 0 -- -- 57
2019-08-28 12:00:00 22 2 Nordeste 6 Sudeste 0 -- -- 70
2019-08-28 11:00:00 17.9 0 Calma 6 Sudeste 0 -- -- 87
2019-08-28 10:00:00 12 0 Calma 2 Sur 0 -- -- 100
2019-08-28 09:00:00 8.6 0 Calma 4 Norte 0 -- -- 99
2019-08-28 08:00:00 8.2 0 Calma 3 Noroeste 0 -- -- 97
2019-08-28 07:00:00 8.7 0 Calma 2 Noroeste 0 -- -- 97
2019-08-28 06:00:00 9.4 0 Calma 5 Norte 0 -- -- 97
2019-08-28 05:00:00 9.9 0 Calma 4 Noroeste 0 -- -- 96
2019-08-28 04:00:00 10.7 0 Calma 4 Noroeste 0 -- -- 96
2019-08-28 03:00:00 11.4 0 Calma 4 Norte 0 -- -- 96
2019-08-28 02:00:00 12.3 0 Calma 3 Noroeste 0 -- -- 94
2019-08-28 01:00:00 13.4 0 Calma 4 Norte 0 -- -- 93
2019-08-28 00:00:00 14.5 0 Calma 4 Norte 0 -- -- 91
2019-08-27 23:00:00 15.7 0 Calma 5 Nordeste 0 -- -- 90
2019-08-27 22:00:00 18.3 0 Calma 5 Sudoeste 0 -- -- 80
2019-08-27 21:00:00 21.5 2 Sudoeste 11 Sudoeste 0 -- -- 67
2019-08-27 20:00:00 24.1 3 Sudoeste 10 Sudoeste 0 -- -- 55
2019-08-27 19:00:00 25.7 4 Sudoeste 13 Sur 0 -- -- 45
2019-08-27 18:00:00 26.1 3 Sur 6 Sudoeste 0 -- -- 47
2019-08-27 17:00:00 26.6 4 Sur 9 Sudoeste 0 -- -- 48
2019-08-27 16:00:00 26 4 Sudoeste 13 Sur 0 -- -- 46
2019-08-27 15:00:00 25.2 3 Sur 14 Oeste 0 -- -- 50
2019-08-27 14:00:00 24 3 Sur 10 Sur 0 -- -- 53
2019-08-27 13:00:00 22.6 3 Este 10 Sudeste 0 -- -- 59
2019-08-27 12:00:00 19.8 3 Este 10 Este 0 -- -- 72
2019-08-27 11:00:00 15.3 0 Calma 4 Norte 0 -- -- 87
2019-08-27 10:00:00 10.3 0 Calma 4 Este 0 -- -- 100
2019-08-27 09:00:00 7 0 Calma 4 Norte 0 -- -- 100
2019-08-27 08:00:00 6.8 0 Calma 3 Norte 0 -- -- 99
2019-08-27 07:00:00 7.3 0 Calma 8 Noroeste 0 -- -- 99
2019-08-27 06:00:00 7.4 0 Calma 4 Sudeste 0 -- -- 98
2019-08-27 05:00:00 8 0 Calma 4 Noroeste 0 -- -- 98
2019-08-27 04:00:00 8.6 0 Calma 4 Norte 0 -- -- 98
2019-08-27 03:00:00 9.1 2 Norte 5 Norte 0 -- -- 97
2019-08-27 02:00:00 9.6 0 Calma 3 Norte 0 -- -- 96
2019-08-27 01:00:00 10.4 0 Calma 5 Norte 0 -- -- 95
2019-08-27 00:00:00 11.5 0 Calma 4 Norte 0 -- -- 94
2019-08-26 23:00:00 12.7 0 Calma 4 Norte 0 -- -- 93
2019-08-26 22:00:00 14.6 3 Norte 5 Noroeste 0 -- -- 91
2019-08-26 21:00:00 17.2 2 Norte 5 Norte 0 -- -- 84
2019-08-26 20:00:00 20.1 0 Calma 5 Este 0 -- -- 73
2019-08-26 19:00:00 22 3 Sudeste 7 Este 0 -- -- 63
2019-08-26 18:00:00 20.6 0 Calma 9 Oeste 0 -- -- 75
2019-08-26 17:00:00 20.2 2 Norte 13 Sudoeste 0 -- -- 70
2019-08-26 16:00:00 19 4 Noroeste 12 Noroeste 0 -- -- 77
2019-08-26 15:00:00 16.3 3 Nordeste 10 Sudeste 0.2 -- -- 90
2019-08-26 14:00:00 15.6 0 Calma 11 Este 0.2 -- -- 92
2019-08-26 13:00:00 17.7 3 Este 15 Sudeste 0 -- -- 77
2019-08-26 12:00:00 17.8 2 Sur 11 Nordeste 0 -- -- 81
2019-08-26 11:00:00 17.3 0 Calma 10 Noroeste 0 -- -- 90
2019-08-26 10:00:00 14 2 Noroeste 8 Norte 0 -- -- 100
2019-08-26 09:00:00 12.6 0 Calma 5 Norte 0 -- -- 99
2019-08-26 08:00:00 12.6 0 Calma 6 Nordeste 0 -- -- 99
2019-08-26 07:00:00 12.9 5 Este 13 Sudeste 0 -- -- 99
2019-08-26 06:00:00 13.1 4 Noroeste 15 Noroeste 0 -- -- 99
2019-08-26 05:00:00 12.8 0 Calma 4 Noroeste 0.2 -- -- 98
2019-08-26 04:00:00 13 0 Calma 5 Noroeste 0 -- -- 99
2019-08-26 03:00:00 12.7 0 Calma 10 Noroeste 0 -- -- 99
2019-08-26 02:00:00 12.7 0 Calma 7 Oeste 0 -- -- 98
2019-08-26 01:00:00 13.3 0 Calma 12 Noroeste 0 -- -- 98
2019-08-26 00:00:00 13.6 4 Noroeste 14 Norte 0.2 -- -- 98
2019-08-25 23:00:00 13.6 0 Calma 5 Sur 0.2 -- -- 98
2019-08-25 22:00:00 13.8 4 Norte 17 Noroeste 0.8 -- -- 96
2019-08-25 21:00:00 14.4 2 Norte 13 Norte 2.4 -- -- 97
2019-08-25 20:00:00 14.6 0 Calma 16 Oeste 1.8 -- -- 96
2019-08-25 19:00:00 15 5 Este 16 Oeste 2.6 -- -- 95
2019-08-25 18:00:00 15.3 4 Norte 18 Noroeste 1.8 -- -- 95
2019-08-25 17:00:00 15.6 3 Noroeste 15 Este 7.6 -- -- 93
2019-08-25 16:00:00 17.9 4 Nordeste 33 Oeste 5.8 -- -- 84
2019-08-25 15:00:00 27 3 Noroeste 12 Sudoeste 0 -- -- 42
2019-08-25 14:00:00 26.4 5 Oeste 28 Noroeste 0 -- -- 43
2019-08-25 13:00:00 23.6 6 Oeste 33 Noroeste 0 -- -- 55
2019-08-25 12:00:00 22.6 0 Calma 5 Oeste 0 -- -- 62
2019-08-25 11:00:00 20.2 0 Calma 5 Sur 0 -- -- 70
2019-08-25 10:00:00 15.3 0 Calma 4 Este 0 -- -- 90
2019-08-25 09:00:00 11.4 0 Calma 4 Norte 0 -- -- 97
2019-08-25 08:00:00 10.2 0 Calma 3 Oeste 0 -- -- 96
2019-08-25 07:00:00 10.5 0 Calma 4 Norte 0 -- -- 95
2019-08-25 06:00:00 11.1 0 Calma 4 Noroeste 0 -- -- 95
2019-08-25 05:00:00 11.9 0 Calma 4 Norte 0 -- -- 92
2019-08-25 04:00:00 12.7 0 Calma 4 Norte 0 -- -- 91
2019-08-25 03:00:00 13.3 0 Calma 4 Norte 0 -- -- 90
2019-08-25 02:00:00 13.9 0 Calma 5 Norte 0 -- -- 87
2019-08-25 01:00:00 14.5 0 Calma 4 Norte 0 -- -- 85
2019-08-25 00:00:00 15.2 0 Calma 5 Norte 0 -- -- 82
2019-08-24 23:00:00 16.5 2 Norte 7 Norte 0 -- -- 80
2019-08-24 22:00:00 18.2 0 Calma 6 Norte 0 -- -- 76
2019-08-24 21:00:00 20.8 0 Calma 6 Norte 0 -- -- 67
2019-08-24 20:00:00 25.3 3 Noroeste 15 Norte 0 -- -- 48
2019-08-24 19:00:00 29 4 Oeste 18 Oeste 0 -- -- 39
2019-08-24 18:00:00 30.1 5 Oeste 16 Sudoeste 0 -- -- 34
2019-08-24 17:00:00 29 5 Sudoeste 14 Sudoeste 0 -- -- 36
2019-08-24 16:00:00 28.5 5 Sur 19 Oeste 0 -- -- 34
2019-08-24 15:00:00 29.9 6 Sudoeste 23 Sudoeste 0 -- -- 33
2019-08-24 14:00:00 28.9 3 Sudoeste 8 Sudoeste 0 -- -- 37
2019-08-24 13:00:00 28.2 3 Nordeste 8 Sudeste 0 -- -- 40
2019-08-24 12:00:00 25.1 2 Este 6 Sudeste 0 -- -- 46
2019-08-24 11:00:00 20.3 3 Sur 6 Sudeste 0 -- -- 68
2019-08-24 10:00:00 13 0 Calma 3 Norte 0 -- -- 95
2019-08-24 09:00:00 9.3 0 Calma 3 Norte 0 -- -- 98
2019-08-24 08:00:00 8.7 0 Calma 3 Norte 0 -- -- 96
2019-08-24 07:00:00 9.3 0 Calma 4 Norte 0 -- -- 95
2019-08-24 06:00:00 9.9 0 Calma 4 Norte 0 -- -- 94
2019-08-24 05:00:00 10.7 2 Nordeste 7 Noroeste 0 -- -- 92
2019-08-24 04:00:00 11.3 0 Calma 11 Sudeste 0 -- -- 92
2019-08-24 03:00:00 11.7 0 Calma 4 Norte 0 -- -- 90
2019-08-24 02:00:00 12.5 0 Calma 7 Norte 0 -- -- 87
2019-08-24 01:00:00 13 3 Norte 8 Norte 0 -- -- 85
2019-08-24 00:00:00 13.9 0 Calma 6 Norte 0 -- -- 81
2019-08-23 23:00:00 15.2 0 Calma 5 Norte 0 -- -- 80
2019-08-23 22:00:00 18.2 0 Calma 5 Norte 0 -- -- 73
2019-08-23 21:00:00 22.8 3 Norte 9 Oeste 0 -- -- 63
2019-08-23 20:00:00 27.2 0 Calma 9 Oeste 0 -- -- 48
2019-08-23 19:00:00 29.9 3 Sudoeste 13 Sur 0 -- -- 36
2019-08-23 18:00:00 30.6 4 Sudoeste 16 Sur 0 -- -- 25
2019-08-23 17:00:00 30.6 4 Sudoeste 18 Oeste 0 -- -- 26
2019-08-23 16:00:00 30.1 4 Sudoeste 13 Sudoeste 0 -- -- 26
2019-08-23 15:00:00 29.9 4 Oeste 12 Sur 0 -- -- 30
2019-08-23 14:00:00 28.7 3 Sudeste 10 Sudeste 0 -- -- 28
2019-08-23 13:00:00 27 4 Este 10 Sudeste 0 -- -- 37
2019-08-23 12:00:00 23.7 0 Calma 4 Sudeste 0 -- -- 51
2019-08-23 11:00:00 17.9 0 Calma 2 Norte 0 -- -- 66
2019-08-23 10:00:00 10 0 Calma 3 Norte 0 -- -- 92
2019-08-23 09:00:00 6 0 Calma 4 Norte 0 -- -- 98
2019-08-23 08:00:00 5.1 0 Calma 3 Norte 0 -- -- 96
2019-08-23 07:00:00 5.4 0 Calma 3 Norte 0 -- -- 95
2019-08-23 06:00:00 5.7 0 Calma 3 Noroeste 0 -- -- 95
2019-08-23 05:00:00 6.1 0 Calma 4 Norte 0 -- -- 93
2019-08-23 04:00:00 7.1 0 Calma 5 Norte 0 -- -- 91
2019-08-23 03:00:00 7.6 2 Norte 6 Noroeste 0 -- -- 90
2019-08-23 02:00:00 8.7 2 Norte 4 Norte 0 -- -- 87
2019-08-23 01:00:00 10.2 0 Calma 6 Norte 0 -- -- 85
2019-08-23 00:00:00 12 3 Norte 7 Norte 0 -- -- 82